NV32 weather

Nev Fish & Game Reg III Headquarters Heliport
Las Vegas, Nevada, United States

Public forecast

Using degrees Fahrenheit for public forecast. Weather courtesy of forecast.io.

METAR (pilot weather report)

Closest report is North Las Vegas Airport, 1.5 nm (2.7 km) NNE. Retrieved 2019/03/24 04:53 UTC (20 minutes ago):

KVGT 240453Z AUTO VRB03KT 10SM BKN090 18/02 A2996 RMK AO2 SLP152 T01780022

TAF (pilot weather forecast)

Forecast is more than 12 hours old.

Closest forecast is North Las Vegas Airport, 1.5 nm (2.7 km) NNE. Retrieved 2019/03/23 00:22 UTC (1 day ago):

TAF KVGT 232320Z 2400/2424 21015G24KT P6SM FEW100 SCT200 FM240300 24011KT P6SM FEW100 FM240700 31010KT P6SM FEW100 FM241800 12007KT P6SM SCT250